Time;durP1;ratioP1;P1;durP2;ratioP2;P2;SDS_P1;SDS_P2;PMS_P1;PMS_P2;Temp;Humidity;BMP_temperature;BMP_pressure;BME280_temperature;BME280_humidity;BME280_pressure;Samples;Min_cycle;Max_cycle;Signal;HPM_P1;HPM_P2
2022/12/30 00:01:08;;;;;;;1.83;0.20;;;9.30;83.40;;;;;;4978681;28;20120;-63
2022/12/30 00:03:34;;;;;;;0.20;0.10;;;9.30;83.30;;;;;;4977944;28;20070;-63
2022/12/30 00:06:00;;;;;;;0.15;0.10;;;9.30;83.10;;;;;;4982600;28;20042;-63
2022/12/30 00:11:10;;;;;;;0.75;0.10;;;9.30;82.90;;;;;;4977913;28;20045;-61
2022/12/30 00:34:25;;;;;;;0.47;0.10;;;9.10;82.50;;;;;;4978061;28;20063;-61
2022/12/30 00:36:52;;;;;;;2.42;0.10;;;9.10;82.40;;;;;;4981776;28;20034;-61
2022/12/30 00:39:17;;;;;;;0.30;0.10;;;9.10;82.60;;;;;;4977069;28;20526;-61
2022/12/30 00:44:27;;;;;;;0.63;0.10;;;9.00;82.70;;;;;;4987929;28;20042;-62
2022/12/30 00:46:53;;;;;;;0.10;0.10;;;9.00;82.70;;;;;;4987777;28;20038;-63
2022/12/30 00:57:31;;;;;;;0.40;0.00;;;8.90;82.90;;;;;;4977227;28;20038;-64
2022/12/30 00:59:57;;;;;;;0.88;0.13;;;8.90;82.90;;;;;;4974002;28;20038;-63
2022/12/30 01:02:23;;;;;;;1.65;0.10;;;8.90;82.90;;;;;;4975839;28;20043;-63
2022/12/30 01:04:48;;;;;;;0.63;0.10;;;8.90;82.90;;;;;;4975393;28;20050;-62
2022/12/30 01:07:14;;;;;;;1.75;0.15;;;8.90;82.90;;;;;;4970023;28;20038;-61
2022/12/30 01:09:39;;;;;;;0.25;0.10;;;8.90;83.00;;;;;;4976028;28;20084;-64
2022/12/30 01:12:08;;;;;;;0.40;0.00;;;8.80;82.90;;;;;;4971405;28;20042;-62
2022/12/30 01:14:35;;;;;;;0.25;0.10;;;8.80;82.90;;;;;;4969312;28;20043;-62
2022/12/30 01:17:02;;;;;;;0.45;0.00;;;8.90;83.10;;;;;;4973541;28;20117;-63
2022/12/30 01:19:27;;;;;;;0.10;0.00;;;8.80;82.90;;;;;;4974004;28;20486;-62
2022/12/30 01:21:53;;;;;;;0.75;0.13;;;8.80;82.90;;;;;;4969117;28;20093;-61
2022/12/30 01:24:19;;;;;;;0.57;0.10;;;8.80;83.00;;;;;;4966569;28;20042;-61
2022/12/30 01:26:44;;;;;;;0.30;0.20;;;8.80;83.10;;;;;;4973923;28;20034;-60
2022/12/30 01:29:10;;;;;;;0.65;0.05;;;8.80;83.00;;;;;;4980114;28;20198;-60
2022/12/30 01:31:35;;;;;;;0.17;0.00;;;8.80;83.00;;;;;;4982932;28;20046;-62
2022/12/30 01:34:01;;;;;;;1.67;0.28;;;8.80;82.90;;;;;;4984731;28;20031;-61
2022/12/30 01:36:26;;;;;;;0.20;0.00;;;8.80;82.90;;;;;;4983166;28;20344;-62
2022/12/30 01:38:52;;;;;;;0.20;0.10;;;8.80;82.90;;;;;;4981042;28;20089;-62
2022/12/30 01:41:18;;;;;;;0.70;0.00;;;8.70;82.70;;;;;;4982777;28;20041;-63
2022/12/30 01:43:47;;;;;;;0.22;0.03;;;8.70;82.70;;;;;;4985023;28;20044;-62
2022/12/30 01:46:26;;;;;;;0.40;0.00;;;8.70;82.90;;;;;;4980868;28;20049;-61
2022/12/30 01:48:55;;;;;;;0.20;0.00;;;8.70;83.10;;;;;;4984800;28;20572;-61
2022/12/30 01:51:31;;;;;;;0.60;0.10;;;8.80;83.80;;;;;;4982856;28;20034;-60
2022/12/30 01:54:01;;;;;;;1.17;0.10;;;8.70;83.20;;;;;;4978117;28;20197;-61
2022/12/30 01:56:32;;;;;;;0.28;0.10;;;8.70;83.00;;;;;;4981776;28;20035;-61
2022/12/30 01:59:05;;;;;;;0.40;0.15;;;8.70;83.00;;;;;;4981547;28;20050;-63
2022/12/30 02:01:33;;;;;;;0.55;0.10;;;8.80;82.90;;;;;;4976583;28;21099;-61
2022/12/30 02:04:03;;;;;;;1.23;0.30;;;8.80;82.90;;;;;;4972592;28;20118;-61
2022/12/30 02:06:40;;;;;;;0.22;0.15;;;8.80;82.90;;;;;;4978461;28;20121;-60
2022/12/30 02:09:06;;;;;;;0.70;0.20;;;8.80;82.90;;;;;;4970412;28;20092;-62
2022/12/30 02:11:33;;;;;;;0.20;0.10;;;8.80;82.60;;;;;;4975057;28;20129;-63
2022/12/30 02:13:59;;;;;;;0.80;0.10;;;8.80;82.60;;;;;;4968718;28;20477;-62
2022/12/30 02:16:46;;;;;;;0.20;0.10;;;8.80;82.50;;;;;;4978421;28;20068;-61
2022/12/30 02:19:17;;;;;;;0.65;0.20;;;8.80;83.10;;;;;;4984814;28;20037;-62
2022/12/30 02:22:07;;;;;;;0.05;0.00;;;8.70;82.60;;;;;;4979067;28;20027;-62
2022/12/30 02:24:44;;;;;;;0.43;0.00;;;8.70;83.00;;;;;;4975139;28;20053;-63
2022/12/30 02:27:37;;;;;;;0.47;0.10;;;8.70;84.00;;;;;;4978148;28;20054;-63
2022/12/30 02:30:11;;;;;;;0.03;0.00;;;8.60;83.40;;;;;;4975060;28;20403;-64
2022/12/30 02:33:02;;;;;;;0.20;0.00;;;8.60;83.30;;;;;;4973878;28;20124;-63
2022/12/30 02:35:39;;;;;;;0.85;0.05;;;8.60;83.40;;;;;;4978517;28;20034;-63
2022/12/30 02:38:50;;;;;;;0.00;0.00;;;8.60;83.70;;;;;;4977111;28;20129;-63
2022/12/30 02:44:37;;;;;;;0.03;0.00;;;8.50;83.80;;;;;;4979305;28;20061;-62
2022/12/30 02:47:39;;;;;;;1.00;0.10;;;8.50;83.60;;;;;;4981227;28;20040;-61
2022/12/30 02:52:55;;;;;;;0.75;0.10;;;8.50;83.40;;;;;;4975625;28;20061;-62
2022/12/30 02:55:20;;;;;;;0.20;0.10;;;8.40;83.50;;;;;;4980292;28;20049;-61
2022/12/30 02:57:46;;;;;;;0.20;0.08;;;8.40;83.60;;;;;;4980506;28;20038;-61
2022/12/30 03:05:59;;;;;;;0.30;0.10;;;8.30;83.90;;;;;;4975727;28;20117;-61
2022/12/30 03:08:35;;;;;;;0.00;0.00;;;8.30;84.30;;;;;;4976898;28;20045;-62
2022/12/30 03:11:16;;;;;;;0.57;0.10;;;8.30;84.30;;;;;;4969595;28;20093;-63
2022/12/30 03:14:03;;;;;;;0.25;0.10;;;8.30;84.40;;;;;;4969044;28;20034;-62
2022/12/30 03:16:32;;;;;;;0.30;0.13;;;8.30;84.80;;;;;;4976972;28;20216;-62
2022/12/30 03:19:02;;;;;;;0.10;0.10;;;8.30;84.10;;;;;;4982933;28;20038;-62
2022/12/30 03:21:30;;;;;;;1.23;0.20;;;8.30;84.40;;;;;;4981715;28;20542;-59
2022/12/30 03:27:04;;;;;;;0.20;0.10;;;8.30;84.90;;;;;;4976632;28;20116;-60
2022/12/30 03:29:35;;;;;;;0.50;0.00;;;8.30;84.60;;;;;;4974359;28;20026;-63
2022/12/30 03:32:02;;;;;;;0.10;0.10;;;8.30;84.60;;;;;;4977964;28;20041;-61
2022/12/30 03:34:28;;;;;;;0.20;0.20;;;8.40;84.80;;;;;;4979853;28;20030;-60
2022/12/30 03:37:00;;;;;;;0.10;0.10;;;8.40;84.80;;;;;;4977734;28;20096;-63
2022/12/30 03:39:35;;;;;;;0.10;0.10;;;8.30;84.80;;;;;;4976110;28;21679;-62
2022/12/30 03:42:03;;;;;;;0.17;0.10;;;8.40;84.80;;;;;;4976619;28;20045;-60
2022/12/30 03:44:29;;;;;;;0.20;0.13;;;8.40;84.70;;;;;;4982070;28;20046;-61
2022/12/30 03:46:55;;;;;;;0.22;0.17;;;8.40;84.60;;;;;;4973563;28;20030;-63
2022/12/30 03:49:20;;;;;;;0.43;0.20;;;8.40;84.70;;;;;;4980212;28;20081;-62
2022/12/30 03:51:46;;;;;;;0.10;0.10;;;8.50;84.80;;;;;;4975230;28;20045;-61
2022/12/30 03:54:12;;;;;;;0.15;0.10;;;8.50;84.80;;;;;;4979779;28;20434;-62
2022/12/30 03:56:37;;;;;;;0.32;0.10;;;8.50;84.80;;;;;;4974497;28;20117;-62
2022/12/30 03:59:03;;;;;;;0.20;0.17;;;8.50;84.80;;;;;;4978603;28;20150;-61
2022/12/30 04:01:28;;;;;;;0.30;0.10;;;8.50;84.70;;;;;;4973509;28;20419;-62
2022/12/30 04:03:54;;;;;;;0.63;0.10;;;8.60;84.70;;;;;;4979523;28;20034;-62
2022/12/30 04:06:20;;;;;;;1.38;0.20;;;8.60;84.60;;;;;;4978931;28;20065;-60
2022/12/30 04:08:45;;;;;;;0.17;0.10;;;8.60;84.60;;;;;;4973732;28;20112;-62
2022/12/30 04:11:11;;;;;;;0.13;0.10;;;8.60;84.60;;;;;;4969828;28;20698;-60
2022/12/30 04:13:36;;;;;;;0.10;0.10;;;8.60;84.50;;;;;;4967509;28;20034;-61
2022/12/30 04:16:02;;;;;;;0.25;0.10;;;8.70;84.50;;;;;;4974298;28;20502;-62
2022/12/30 04:18:27;;;;;;;0.40;0.10;;;8.60;84.50;;;;;;4978335;28;20034;-63
2022/12/30 04:20:53;;;;;;;0.20;0.10;;;8.60;84.40;;;;;;4977347;28;20054;-61
2022/12/30 04:23:18;;;;;;;0.00;0.00;;;8.60;84.50;;;;;;4974499;28;20054;-62
2022/12/30 04:25:44;;;;;;;0.20;0.10;;;8.60;84.60;;;;;;4974980;28;20034;-62
2022/12/30 04:28:10;;;;;;;0.22;0.10;;;8.60;84.70;;;;;;4974168;28;20043;-61
2022/12/30 04:30:36;;;;;;;0.50;0.20;;;8.60;84.80;;;;;;4972360;28;20042;-61
2022/12/30 04:33:02;;;;;;;1.02;0.30;;;8.60;84.90;;;;;;4974833;28;20069;-60
2022/12/30 04:35:28;;;;;;;0.40;0.22;;;8.60;85.00;;;;;;4975872;28;20035;-61
2022/12/30 04:37:53;;;;;;;0.93;0.38;;;8.60;85.00;;;;;;4976506;28;20034;-62
2022/12/30 04:40:19;;;;;;;1.48;0.30;;;8.60;85.00;;;;;;4973194;28;20072;-61
2022/12/30 04:42:44;;;;;;;0.40;0.30;;;8.60;85.00;;;;;;4971992;28;22111;-62
2022/12/30 04:45:10;;;;;;;0.32;0.20;;;8.60;85.00;;;;;;4975182;28;20038;-63
2022/12/30 04:47:38;;;;;;;1.27;0.10;;;8.60;85.00;;;;;;4975265;28;20406;-63
2022/12/30 04:50:04;;;;;;;0.10;0.10;;;8.60;85.10;;;;;;4974352;28;20388;-63
2022/12/30 04:52:30;;;;;;;0.22;0.22;;;8.70;85.00;;;;;;4973554;28;20030;-62
2022/12/30 04:54:55;;;;;;;0.45;0.17;;;8.70;85.00;;;;;;4979598;28;20518;-63
2022/12/30 04:57:21;;;;;;;0.30;0.30;;;8.70;85.00;;;;;;4982063;28;20421;-59
2022/12/30 04:59:46;;;;;;;0.20;0.20;;;8.70;84.90;;;;;;4980508;28;20042;-62
2022/12/30 05:02:12;;;;;;;14.52;7.95;;;8.70;84.80;;;;;;4977372;28;20488;-62
2022/12/30 05:04:38;;;;;;;37.72;14.20;;;8.70;84.70;;;;;;4973781;28;20042;-62
2022/12/30 05:07:04;;;;;;;35.05;12.82;;;8.70;84.60;;;;;;4981347;28;20038;-62
2022/12/30 05:09:29;;;;;;;9.00;5.00;;;8.70;84.60;;;;;;4980732;28;20042;-60
2022/12/30 05:11:55;;;;;;;2.50;1.67;;;8.60;84.50;;;;;;4970268;28;20031;-61
2022/12/30 05:14:21;;;;;;;3.78;1.60;;;8.70;84.60;;;;;;4981521;28;20030;-62
2022/12/30 05:16:46;;;;;;;8.27;6.32;;;8.70;84.50;;;;;;4982785;28;20457;-62
2022/12/30 05:19:12;;;;;;;9.50;7.72;;;8.70;84.50;;;;;;4984313;28;20088;-63
2022/12/30 05:21:38;;;;;;;3.83;3.00;;;8.70;84.50;;;;;;4983509;28;20511;-60
2022/12/30 05:26:48;;;;;;;1.33;1.00;;;8.70;84.40;;;;;;4982735;28;20504;-60
2022/12/30 05:29:13;;;;;;;0.30;0.30;;;8.70;84.20;;;;;;4983030;28;20034;-60
2022/12/30 05:31:39;;;;;;;1.02;0.43;;;8.70;84.00;;;;;;4980456;28;20383;-61
2022/12/30 05:34:04;;;;;;;0.63;0.32;;;8.70;83.70;;;;;;4983263;28;20038;-60
2022/12/30 05:36:30;;;;;;;0.63;0.28;;;8.70;83.50;;;;;;4982492;28;20134;-60
2022/12/30 05:38:56;;;;;;;0.63;0.50;;;8.60;83.40;;;;;;4982275;28;20031;-62
2022/12/30 05:41:21;;;;;;;0.30;0.30;;;8.60;83.30;;;;;;4984441;28;20102;-60
2022/12/30 05:43:48;;;;;;;0.20;0.20;;;8.50;83.30;;;;;;4982744;28;20310;-61
2022/12/30 05:46:14;;;;;;;0.20;0.20;;;8.50;83.20;;;;;;4981647;28;20125;-60
2022/12/30 05:48:39;;;;;;;0.50;0.20;;;8.50;83.20;;;;;;4981631;28;22609;-60
2022/12/30 05:51:05;;;;;;;0.10;0.10;;;8.40;83.10;;;;;;4981002;28;20065;-61
2022/12/30 05:53:31;;;;;;;0.50;0.50;;;8.40;83.20;;;;;;4977096;28;20034;-61
2022/12/30 05:55:58;;;;;;;0.40;0.40;;;8.40;83.20;;;;;;4980090;28;20035;-61
2022/12/30 05:58:27;;;;;;;0.55;0.30;;;8.30;83.20;;;;;;4976047;28;20078;-62
2022/12/30 06:00:55;;;;;;;0.25;0.10;;;8.30;83.30;;;;;;4973796;28;20030;-62
2022/12/30 06:03:20;;;;;;;0.65;0.30;;;8.30;83.40;;;;;;4979705;28;20408;-61
2022/12/30 06:05:46;;;;;;;1.23;0.40;;;8.20;83.40;;;;;;4979832;28;20077;-62
2022/12/30 06:08:11;;;;;;;0.32;0.30;;;8.20;83.60;;;;;;4979798;28;20089;-62
2022/12/30 06:10:37;;;;;;;0.65;0.50;;;8.20;83.80;;;;;;4976446;28;22695;-62
2022/12/30 06:13:02;;;;;;;0.50;0.40;;;8.20;84.00;;;;;;4975338;28;20125;-62
2022/12/30 06:15:28;;;;;;;0.38;0.25;;;8.10;83.90;;;;;;4981606;28;20111;-61
2022/12/30 06:17:54;;;;;;;1.05;0.40;;;8.10;83.90;;;;;;4977968;28;20488;-62
2022/12/30 06:20:19;;;;;;;1.48;0.40;;;8.10;83.90;;;;;;4974691;28;20030;-62
2022/12/30 06:22:45;;;;;;;0.40;0.40;;;8.10;84.00;;;;;;4960563;28;20034;-61
2022/12/30 06:25:11;;;;;;;0.63;0.40;;;8.00;83.90;;;;;;4976473;28;20682;-62
2022/12/30 06:27:36;;;;;;;0.40;0.40;;;8.00;84.10;;;;;;4975828;28;20037;-63
2022/12/30 06:30:03;;;;;;;0.55;0.40;;;7.90;84.20;;;;;;4979401;28;20058;-62
2022/12/30 06:32:31;;;;;;;1.90;0.50;;;7.90;84.30;;;;;;4975760;28;20081;-62
2022/12/30 06:34:56;;;;;;;0.88;0.50;;;7.90;84.30;;;;;;4981030;28;20053;-62
2022/12/30 06:37:22;;;;;;;0.52;0.52;;;7.80;84.30;;;;;;4974583;28;20434;-61
2022/12/30 06:39:47;;;;;;;4.00;0.63;;;7.80;84.30;;;;;;4978785;28;20092;-61
2022/12/30 06:42:13;;;;;;;0.77;0.45;;;7.80;84.40;;;;;;4982933;28;20058;-60
2022/12/30 06:44:38;;;;;;;0.95;0.80;;;7.80;84.30;;;;;;4987267;28;20026;-61
2022/12/30 06:47:04;;;;;;;1.15;0.50;;;7.80;84.50;;;;;;4984214;28;20128;-60
2022/12/30 06:49:30;;;;;;;3.03;0.90;;;7.70;84.40;;;;;;4987516;28;20023;-60
2022/12/30 06:51:55;;;;;;;1.13;0.90;;;7.70;84.50;;;;;;4984875;28;20030;-61
2022/12/30 06:54:21;;;;;;;1.10;0.98;;;7.70;84.50;;;;;;4985429;28;20041;-61
2022/12/30 06:56:46;;;;;;;1.20;1.10;;;7.70;84.50;;;;;;4975290;28;20541;-63
2022/12/30 06:59:12;;;;;;;1.20;1.10;;;7.70;84.50;;;;;;4981021;28;20144;-63
2022/12/30 07:01:37;;;;;;;1.17;1.08;;;7.60;84.50;;;;;;4973943;28;20057;-62
2022/12/30 07:04:03;;;;;;;2.30;2.15;;;7.60;84.50;;;;;;4977050;28;20260;-63
2022/12/30 07:06:28;;;;;;;28.77;16.98;;;7.60;84.30;;;;;;4974569;28;20414;-62
2022/12/30 07:08:54;;;;;;;34.80;20.70;;;7.60;84.10;;;;;;4976031;28;20054;-61
2022/12/30 07:11:20;;;;;;;21.05;13.98;;;7.60;84.00;;;;;;4970323;28;20502;-63
2022/12/30 07:13:45;;;;;;;10.70;7.47;;;7.60;83.90;;;;;;4977269;28;20440;-61
2022/12/30 07:16:11;;;;;;;8.35;5.22;;;7.50;83.80;;;;;;4977138;28;20046;-60
2022/12/30 07:18:36;;;;;;;7.18;5.45;;;7.50;83.90;;;;;;4979333;28;20037;-61
2022/12/30 07:21:02;;;;;;;16.02;10.15;;;7.50;83.90;;;;;;4974486;28;20507;-63
2022/12/30 07:23:28;;;;;;;8.90;6.18;;;7.40;84.00;;;;;;4979070;28;20383;-62
2022/12/30 07:25:53;;;;;;;5.88;4.60;;;7.40;84.10;;;;;;4980377;28;20080;-63
2022/12/30 07:28:19;;;;;;;4.03;2.72;;;7.40;84.00;;;;;;4983920;28;20027;-60
2022/12/30 07:30:47;;;;;;;2.95;2.20;;;7.40;84.10;;;;;;4984619;28;20039;-61
2022/12/30 07:33:13;;;;;;;2.50;2.30;;;7.30;83.90;;;;;;4984069;28;20046;-62
2022/12/30 07:35:38;;;;;;;1.98;1.80;;;7.30;83.70;;;;;;4986517;28;20088;-62
2022/12/30 07:38:04;;;;;;;2.10;1.90;;;7.30;83.90;;;;;;4984527;28;20039;-63
2022/12/30 07:40:29;;;;;;;1.38;1.27;;;7.20;83.90;;;;;;4984157;28;20291;-59
2022/12/30 07:42:55;;;;;;;2.83;1.52;;;7.20;83.90;;;;;;4976296;28;20038;-60
2022/12/30 07:45:21;;;;;;;1.30;1.20;;;7.20;83.60;;;;;;4982515;28;20038;-62
2022/12/30 07:47:46;;;;;;;1.30;1.20;;;7.20;83.40;;;;;;4980878;28;20181;-61
2022/12/30 07:50:12;;;;;;;0.90;0.90;;;7.20;83.30;;;;;;4980499;28;20400;-60
2022/12/30 07:52:38;;;;;;;1.30;1.20;;;7.20;83.20;;;;;;4972782;28;20736;-62
2022/12/30 07:55:04;;;;;;;1.20;1.10;;;7.20;83.20;;;;;;4976538;28;20410;-62
2022/12/30 07:57:30;;;;;;;1.67;1.50;;;7.20;83.20;;;;;;4969050;28;20030;-63
2022/12/30 07:59:56;;;;;;;2.15;1.95;;;7.20;83.20;;;;;;4953854;28;20045;-61
2022/12/30 08:02:22;;;;;;;1.85;1.75;;;7.20;83.00;;;;;;4965405;28;20043;-62
2022/12/30 08:04:48;;;;;;;2.00;1.90;;;7.10;83.10;;;;;;4968838;28;20799;-62
2022/12/30 08:07:19;;;;;;;2.40;2.20;;;7.10;83.20;;;;;;4965744;28;20125;-63
2022/12/30 08:09:47;;;;;;;2.10;1.98;;;7.10;83.30;;;;;;4969489;28;20340;-62
2022/12/30 08:12:13;;;;;;;3.20;2.17;;;7.10;83.40;;;;;;4959282;28;20039;-62
2022/12/30 08:14:39;;;;;;;2.13;1.98;;;7.10;83.60;;;;;;4969628;28;20044;-61
2022/12/30 08:17:04;;;;;;;2.40;2.20;;;7.10;83.60;;;;;;4965369;28;20550;-62
2022/12/30 08:19:30;;;;;;;2.20;2.10;;;7.10;83.70;;;;;;4969111;28;20058;-63
2022/12/30 08:21:56;;;;;;;1.88;1.77;;;7.10;83.80;;;;;;4969457;28;20051;-63
2022/12/30 08:24:21;;;;;;;1.58;1.48;;;7.10;83.80;;;;;;4971176;28;20031;-62
2022/12/30 08:26:47;;;;;;;1.10;1.10;;;7.10;84.00;;;;;;4979792;28;20775;-62
2022/12/30 08:29:12;;;;;;;1.27;1.17;;;7.10;84.10;;;;;;4976151;28;20126;-63
2022/12/30 08:31:38;;;;;;;1.35;1.25;;;7.10;84.50;;;;;;4967866;28;20070;-62
2022/12/30 08:34:04;;;;;;;1.45;1.35;;;7.10;84.60;;;;;;4973102;28;20117;-62
2022/12/30 08:36:30;;;;;;;1.70;1.60;;;7.10;84.70;;;;;;4971650;28;20037;-63
2022/12/30 08:39:00;;;;;;;1.65;1.55;;;7.10;85.60;;;;;;4980109;28;20030;-61
2022/12/30 08:41:27;;;;;;;2.00;1.80;;;7.10;84.90;;;;;;4972842;28;21415;-61
2022/12/30 08:43:55;;;;;;;3.47;1.83;;;7.20;84.90;;;;;;4969249;28;20049;-62
2022/12/30 08:46:21;;;;;;;2.10;1.88;;;7.20;85.00;;;;;;4970074;28;20425;-61
2022/12/30 08:48:47;;;;;;;3.15;2.78;;;7.20;85.10;;;;;;4981021;28;20039;-62
2022/12/30 08:51:15;;;;;;;2.22;2.03;;;7.30;85.30;;;;;;4975551;28;20678;-59
2022/12/30 08:53:41;;;;;;;2.25;2.00;;;7.30;85.30;;;;;;4982675;28;20732;-58
2022/12/30 08:56:15;;;;;;;1.98;1.88;;;7.30;85.30;;;;;;4978437;28;20075;-60
2022/12/30 08:58:41;;;;;;;1.60;1.50;;;7.30;85.70;;;;;;4978918;28;20129;-60
2022/12/30 09:01:08;;;;;;;1.67;1.58;;;7.30;85.40;;;;;;4981329;28;20149;-61
2022/12/30 09:03:35;;;;;;;2.35;2.08;;;7.30;85.70;;;;;;4976542;28;20137;-63
2022/12/30 09:06:01;;;;;;;1.92;1.70;;;7.30;85.70;;;;;;4978948;28;20035;-62
2022/12/30 09:08:26;;;;;;;2.45;1.80;;;7.40;85.90;;;;;;4980223;28;20034;-62
2022/12/30 09:11:10;;;;;;;2.13;1.92;;;7.40;86.00;;;;;;4971665;28;20513;-62
2022/12/30 09:13:36;;;;;;;1.98;1.85;;;7.40;86.70;;;;;;4978188;28;20053;-61
2022/12/30 09:16:04;;;;;;;2.50;2.30;;;7.40;86.20;;;;;;4979051;28;20641;-60
2022/12/30 09:18:29;;;;;;;1.95;1.75;;;7.40;86.30;;;;;;4977843;28;20042;-59
2022/12/30 09:20:55;;;;;;;2.30;2.10;;;7.50;86.40;;;;;;4981913;28;20049;-62
2022/12/30 09:23:21;;;;;;;3.80;2.03;;;7.50;86.40;;;;;;4975977;28;20038;-61
2022/12/30 09:25:46;;;;;;;2.08;1.90;;;7.50;86.60;;;;;;4979889;28;20078;-60
2022/12/30 09:28:12;;;;;;;2.25;1.90;;;7.50;86.60;;;;;;4976326;28;20419;-62
2022/12/30 09:30:37;;;;;;;2.20;2.00;;;7.50;86.60;;;;;;4976690;28;20034;-62
2022/12/30 09:33:04;;;;;;;3.20;2.13;;;7.60;86.70;;;;;;4976052;28;20030;-61
2022/12/30 09:35:29;;;;;;;2.33;2.13;;;7.60;86.90;;;;;;4977200;28;20038;-61
2022/12/30 09:37:55;;;;;;;3.47;2.60;;;7.60;86.90;;;;;;4973986;28;21013;-61
2022/12/30 09:40:44;;;;;;;3.30;2.00;;;7.70;87.00;;;;;;4976363;28;20039;-63
2022/12/30 09:43:27;;;;;;;2.58;2.22;;;7.70;87.20;;;;;;4978105;28;20399;-60
2022/12/30 09:46:05;;;;;;;2.10;1.98;;;7.80;87.30;;;;;;4975397;28;20075;-60
2022/12/30 09:48:40;;;;;;;1.85;1.75;;;7.80;87.20;;;;;;4975788;28;20031;-61
2022/12/30 09:51:11;;;;;;;1.70;1.60;;;7.70;87.20;;;;;;4976483;28;20533;-62
2022/12/30 09:53:54;;;;;;;1.63;1.52;;;7.90;87.30;;;;;;4977082;28;20126;-63
2022/12/30 09:56:37;;;;;;;1.63;1.52;;;8.00;87.40;;;;;;4975587;28;20398;-62
2022/12/30 09:59:28;;;;;;;1.80;1.55;;;8.00;87.30;;;;;;4973480;28;20066;-62
2022/12/30 10:02:14;;;;;;;2.90;1.20;;;8.10;87.70;;;;;;4964052;28;20058;-63
2022/12/30 10:04:40;;;;;;;1.90;1.30;;;8.20;87.10;;;;;;4970006;28;20057;-63
2022/12/30 10:07:11;;;;;;;1.00;0.90;;;8.20;86.90;;;;;;4980363;28;20038;-63
2022/12/30 10:09:45;;;;;;;1.67;1.20;;;8.30;86.90;;;;;;4982882;28;20109;-63
2022/12/30 10:12:14;;;;;;;1.45;1.35;;;8.30;86.90;;;;;;4979148;28;20045;-62
2022/12/30 10:14:55;;;;;;;1.40;1.30;;;8.40;86.70;;;;;;4983163;28;20555;-60
2022/12/30 10:17:39;;;;;;;2.63;2.05;;;8.40;86.70;;;;;;4981987;28;20557;-63
2022/12/30 10:20:46;;;;;;;1.40;1.30;;;8.50;87.00;;;;;;4980330;28;20039;-61
2022/12/30 10:23:32;;;;;;;1.38;0.98;;;8.60;87.00;;;;;;4982134;28;20027;-62
2022/12/30 10:26:19;;;;;;;1.60;1.50;;;8.60;86.60;;;;;;4982620;28;20038;-60
2022/12/30 10:28:50;;;;;;;2.35;1.60;;;8.70;86.50;;;;;;4982783;28;20490;-63
2022/12/30 10:31:20;;;;;;;1.55;1.35;;;8.70;86.00;;;;;;4982704;28;20038;-62
2022/12/30 10:33:52;;;;;;;1.10;1.00;;;8.80;85.90;;;;;;4984491;28;20456;-62
2022/12/30 10:36:31;;;;;;;0.98;0.98;;;8.90;85.90;;;;;;4981683;28;20038;-63
2022/12/30 10:39:15;;;;;;;0.98;0.90;;;8.90;85.70;;;;;;4980081;28;20038;-62
2022/12/30 10:42:11;;;;;;;1.70;1.40;;;9.00;85.90;;;;;;4983002;28;20569;-62
2022/12/30 10:44:59;;;;;;;1.58;1.00;;;9.00;85.70;;;;;;4981665;28;20043;-63
2022/12/30 10:47:40;;;;;;;1.55;1.15;;;9.10;85.50;;;;;;4981342;28;20027;-62
2022/12/30 10:50:34;;;;;;;2.17;1.30;;;9.10;85.30;;;;;;4984182;28;20050;-60
2022/12/30 10:53:02;;;;;;;2.53;1.23;;;9.20;85.30;;;;;;4977646;28;20520;-61
2022/12/30 10:55:31;;;;;;;0.95;0.60;;;9.30;85.10;;;;;;4983647;28;20290;-62
2022/12/30 10:58:13;;;;;;;0.50;0.50;;;9.30;84.90;;;;;;4976674;28;20086;-62
2022/12/30 11:00:40;;;;;;;1.95;0.50;;;9.40;84.50;;;;;;4975345;28;20057;-62
2022/12/30 11:03:32;;;;;;;1.30;1.00;;;9.40;84.60;;;;;;4980866;28;20506;-63
2022/12/30 11:06:13;;;;;;;0.90;0.80;;;9.50;84.60;;;;;;4974882;28;20100;-62
2022/12/30 11:08:39;;;;;;;1.30;1.20;;;9.60;84.50;;;;;;4979026;28;20030;-61
2022/12/30 11:11:06;;;;;;;2.75;0.90;;;9.60;84.10;;;;;;4975876;28;20053;-61
2022/12/30 11:16:28;;;;;;;3.03;2.17;;;9.70;83.80;;;;;;4977695;28;20512;-60
2022/12/30 11:18:57;;;;;;;4.53;2.70;;;9.80;83.60;;;;;;4983002;28;20387;-61
2022/12/30 11:21:32;;;;;;;2.15;1.52;;;9.80;83.50;;;;;;4981412;28;20121;-62
2022/12/30 11:24:00;;;;;;;5.65;3.22;;;9.80;83.30;;;;;;4979727;28;20045;-61
2022/12/30 11:26:29;;;;;;;4.78;3.13;;;9.80;83.20;;;;;;4979072;28;20085;-62
2022/12/30 11:29:02;;;;;;;1.98;1.25;;;9.90;83.30;;;;;;4977205;28;20039;-62
2022/12/30 11:31:36;;;;;;;2.05;1.30;;;9.90;83.10;;;;;;4974905;28;20446;-61
2022/12/30 11:34:05;;;;;;;1.50;1.10;;;10.00;83.00;;;;;;4980431;28;20034;-63
2022/12/30 11:36:32;;;;;;;1.08;0.90;;;10.00;83.10;;;;;;4982513;28;20081;-61
2022/12/30 11:39:03;;;;;;;1.50;1.40;;;10.10;83.10;;;;;;4986089;28;20569;-60
2022/12/30 11:41:30;;;;;;;1.20;0.98;;;10.10;82.70;;;;;;4984270;28;20457;-62
2022/12/30 11:43:59;;;;;;;2.90;1.58;;;10.20;82.80;;;;;;4985949;28;20117;-62
2022/12/30 11:46:35;;;;;;;3.33;2.00;;;10.20;82.50;;;;;;4983171;28;20089;-60
2022/12/30 11:49:04;;;;;;;2.03;1.20;;;10.20;82.20;;;;;;4977275;28;20026;-61
2022/12/30 11:51:45;;;;;;;1.40;1.00;;;10.30;82.30;;;;;;4975553;28;20038;-62
2022/12/30 11:54:11;;;;;;;0.73;0.60;;;10.40;81.90;;;;;;4978177;28;20047;-61
2022/12/30 11:56:50;;;;;;;0.93;0.82;;;10.40;82.00;;;;;;4980361;28;20037;-61
2022/12/30 11:59:18;;;;;;;0.82;0.80;;;10.40;81.80;;;;;;4981464;28;20489;-61
2022/12/30 12:01:47;;;;;;;1.05;0.60;;;10.50;82.00;;;;;;4980970;28;20260;-64
2022/12/30 12:04:49;;;;;;;0.60;0.60;;;10.50;82.00;;;;;;4982731;28;20097;-63
2022/12/30 12:07:17;;;;;;;1.10;0.73;;;10.50;81.60;;;;;;4903572;29;20036;-63
2022/12/30 12:10:12;;;;;;;0.88;0.77;;;10.60;81.70;;;;;;4967174;28;20049;-62
2022/12/30 12:12:45;;;;;;;0.88;0.73;;;10.60;81.70;;;;;;4977428;28;20030;-63
2022/12/30 12:15:35;;;;;;;1.30;0.80;;;10.70;81.50;;;;;;4984109;28;20065;-60
2022/12/30 12:18:12;;;;;;;1.67;1.00;;;10.70;81.20;;;;;;4983796;28;20561;-61
2022/12/30 12:20:50;;;;;;;1.17;1.00;;;10.70;81.30;;;;;;4978362;28;20069;-61
2022/12/30 12:23:53;;;;;;;1.00;0.90;;;10.80;81.10;;;;;;4980757;28;20066;-63
2022/12/30 12:26:24;;;;;;;0.95;0.77;;;10.80;80.50;;;;;;4978793;28;20035;-63
2022/12/30 12:28:53;;;;;;;0.70;0.70;;;10.80;81.60;;;;;;4979213;28;20031;-61
2022/12/30 12:31:28;;;;;;;0.60;0.60;;;10.80;80.60;;;;;;4977635;28;20034;-61
2022/12/30 12:34:02;;;;;;;1.17;0.85;;;10.90;80.50;;;;;;4981321;28;20481;-63
2022/12/30 12:36:41;;;;;;;3.28;0.95;;;10.90;80.60;;;;;;4979304;28;20038;-62
2022/12/30 12:39:11;;;;;;;0.90;0.75;;;10.90;80.60;;;;;;4978782;28;20071;-62
2022/12/30 12:42:03;;;;;;;1.08;0.80;;;10.90;80.60;;;;;;4981318;28;20046;-62
2022/12/30 12:44:50;;;;;;;1.05;0.88;;;11.00;80.30;;;;;;4979616;28;20473;-63
2022/12/30 12:47:34;;;;;;;1.20;0.70;;;11.00;80.30;;;;;;4981942;28;20039;-61
2022/12/30 12:50:06;;;;;;;0.60;0.60;;;11.00;80.50;;;;;;4979974;28;20035;-63
2022/12/30 12:52:46;;;;;;;0.70;0.60;;;11.00;80.40;;;;;;4979060;28;20030;-62
2022/12/30 12:55:14;;;;;;;0.50;0.50;;;11.00;80.20;;;;;;4978611;28;20035;-62
2022/12/30 12:57:49;;;;;;;0.60;0.60;;;11.00;80.40;;;;;;4974888;28;20034;-62
2022/12/30 13:00:18;;;;;;;0.70;0.70;;;11.00;80.30;;;;;;4980004;28;20035;-62
2022/12/30 13:03:16;;;;;;;0.60;0.60;;;11.00;80.30;;;;;;4980477;28;20039;-62
2022/12/30 13:06:03;;;;;;;0.73;0.73;;;11.00;80.10;;;;;;4980141;28;20069;-63
2022/12/30 13:08:41;;;;;;;0.77;0.68;;;11.00;80.10;;;;;;4982029;28;20112;-61
2022/12/30 13:11:17;;;;;;;1.58;0.68;;;11.00;80.10;;;;;;4977214;28;20117;-60
2022/12/30 13:14:11;;;;;;;2.50;0.60;;;11.00;80.10;;;;;;4983285;28;20034;-62
2022/12/30 13:16:43;;;;;;;0.88;0.75;;;11.10;80.10;;;;;;4984206;28;20054;-62
2022/12/30 13:19:13;;;;;;;1.35;1.25;;;11.00;80.10;;;;;;4984147;28;20046;-60
2022/12/30 13:21:40;;;;;;;0.75;0.75;;;11.10;80.30;;;;;;4988127;28;20034;-62
2022/12/30 13:24:07;;;;;;;2.20;0.88;;;11.00;80.20;;;;;;4987819;28;20043;-61
2022/12/30 13:26:35;;;;;;;1.35;0.70;;;11.00;80.20;;;;;;4980522;28;20034;-63
2022/12/30 13:29:02;;;;;;;1.17;0.80;;;11.00;80.30;;;;;;4982218;28;20053;-62
2022/12/30 13:31:38;;;;;;;1.20;1.10;;;11.10;80.50;;;;;;4983185;28;20098;-62
2022/12/30 13:34:25;;;;;;;0.90;0.90;;;11.00;80.50;;;;;;4982476;28;20038;-61
2022/12/30 13:37:18;;;;;;;0.82;0.80;;;11.00;80.40;;;;;;4982954;28;20708;-62
2022/12/30 13:39:47;;;;;;;0.65;0.65;;;11.10;80.50;;;;;;4972105;28;20101;-62
2022/12/30 13:42:22;;;;;;;0.52;0.52;;;11.00;80.30;;;;;;4983762;28;20593;-61
2022/12/30 13:44:47;;;;;;;;;;;11.00;80.30;;;;;;4985478;28;20035;-63
2022/12/30 13:47:35;;;;;;;1.35;1.00;;;11.10;80.50;;;;;;4976574;28;20424;-62
2022/12/30 13:50:17;;;;;;;1.00;0.80;;;11.00;80.30;;;;;;4984195;28;20041;-62
2022/12/30 13:52:48;;;;;;;1.23;0.73;;;11.00;80.50;;;;;;4980129;28;20065;-63
2022/12/30 13:55:25;;;;;;;0.93;0.77;;;11.00;80.60;;;;;;4983084;28;20093;-62
2022/12/30 13:58:01;;;;;;;1.38;1.00;;;11.00;80.80;;;;;;4979829;28;20057;-61
2022/12/30 14:00:30;;;;;;;1.95;1.10;;;11.00;80.80;;;;;;4980125;28;20041;-64
2022/12/30 14:03:16;;;;;;;1.08;0.95;;;10.90;80.90;;;;;;4984678;28;20038;-60
2022/12/30 14:05:42;;;;;;;1.42;1.00;;;10.90;81.10;;;;;;4982375;28;20629;-62
2022/12/30 14:08:25;;;;;;;0.70;0.70;;;10.90;81.00;;;;;;4983553;28;20042;-61